KDCU

Pryor Field Regional Airport

Decatur, Alabama, USA
METAR KDCU 141253Z AUTO 00000KT 7SM FEW085 22/20 A3007 RMK AO2 SLP177 T02170200
Observed Flight Rules
Aug-14 @ 12:53 UTC (48 minutes ago) Visual Flight Rules
Visibility Clouds
7 miles
  • Few at 8,500' AGL
Temperatures Readings
Current 22°C / 72°F
Dewpoint 20°C / 68°F
Humidity 88%
Altimeter 30.07" Hg
Pressure 1017.7 hPa
Elevation 176
METAR KDCU 141253Z AUTO 00000KT 7SM FEW085 22/20 A3007 RMK AO2 SLP177 T02170200
Observed Flight Rules
Aug-14 @ 12:53 UTC
(48 minutes ago)
VFR
Clouds
  • Few at 8,500' AGL
Temperature Dewpoint
22°C / 72°F 20°C / 68°F
Humidity Altimeter Pressure
88% 30.07" Hg 1017.7 hPa